Time;durP1;ratioP1;P1;durP2;ratioP2;P2;SDS_P1;SDS_P2;PMS_P1;PMS_P2;Temp;Humidity;BMP_temperature;BMP_pressure;BME280_temperature;BME280_humidity;BME280_pressure;Samples;Min_cycle;Max_cycle;Signal;HPM_P1;HPM_P2
2022/08/18 00:01:53;;;;;;;10.40;9.80;;;24.30;1.00;;;;;;6264502;28;21046;-55
2022/08/18 00:04:58;;;;;;;10.27;9.47;;;24.30;1.00;;;;;;6275803;28;20314;-55
2022/08/18 00:08:02;;;;;;;10.53;9.87;;;24.20;1.00;;;;;;6283149;28;20638;-55
2022/08/18 00:11:07;;;;;;;11.50;10.67;;;24.20;1.00;;;;;;6282507;28;20324;-54
2022/08/18 00:14:15;;;;;;;11.30;10.40;;;24.20;1.00;;;;;;6276265;28;20477;-57
2022/08/18 00:17:24;;;;;;;10.73;10.03;;;24.10;1.00;;;;;;6282314;28;20241;-56
2022/08/18 00:20:27;;;;;;;11.53;10.73;;;24.10;1.00;;;;;;6282344;28;20803;-57
2022/08/18 00:23:31;;;;;;;10.83;10.13;;;24.00;1.00;;;;;;6263473;28;20234;-56
2022/08/18 00:26:35;;;;;;;9.90;9.30;;;24.00;1.00;;;;;;6258593;28;20233;-57
2022/08/18 00:29:38;;;;;;;11.53;10.63;;;24.00;1.00;;;;;;6257436;28;20234;-56
2022/08/18 00:32:45;;;;;;;11.50;10.57;;;24.00;1.00;;;;;;6262026;28;20229;-55
2022/08/18 00:35:47;;;;;;;11.40;10.63;;;24.00;1.00;;;;;;6274460;28;20237;-57
2022/08/18 00:38:50;;;;;;;11.10;10.17;;;24.00;1.00;;;;;;6281104;28;20286;-56
2022/08/18 00:41:55;;;;;;;13.13;10.90;;;24.00;1.00;;;;;;6258261;28;20229;-56
2022/08/18 00:45:00;;;;;;;11.03;10.33;;;24.00;1.00;;;;;;6271998;28;20317;-56
2022/08/18 00:48:05;;;;;;;11.60;10.70;;;24.00;1.00;;;;;;6282846;28;20796;-56
2022/08/18 00:51:12;;;;;;;12.33;11.07;;;24.00;1.00;;;;;;6266813;28;20237;-56
2022/08/18 00:54:20;;;;;;;11.77;10.87;;;24.00;1.00;;;;;;6274959;28;20241;-56
2022/08/18 00:57:26;;;;;;;11.67;10.87;;;23.90;1.00;;;;;;6275850;28;20248;-56
2022/08/18 01:00:29;;;;;;;12.13;11.23;;;23.90;1.00;;;;;;6256936;28;20338;-55
2022/08/18 01:03:35;;;;;;;11.53;10.43;;;23.90;1.00;;;;;;6265594;28;20288;-55
2022/08/18 01:06:42;;;;;;;12.07;11.17;;;23.90;1.00;;;;;;6270215;28;20237;-57
2022/08/18 01:09:44;;;;;;;11.73;10.70;;;23.90;1.00;;;;;;6257864;28;20314;-54
2022/08/18 01:12:52;;;;;;;11.73;10.90;;;23.90;1.00;;;;;;6258057;28;20679;-55
2022/08/18 01:15:56;;;;;;;13.30;11.70;;;23.90;1.00;;;;;;6276218;28;20267;-55
2022/08/18 01:22:25;;;;;;;10.53;9.93;;;23.90;1.00;;;;;;6272840;28;20781;-56
2022/08/18 01:28:51;;;;;;;10.87;10.17;;;23.90;1.00;;;;;;6275850;28;20373;-56
2022/08/18 01:31:54;;;;;;;11.77;10.60;;;23.80;1.00;;;;;;6257080;28;20260;-54
2022/08/18 01:34:59;;;;;;;11.00;10.20;;;23.80;1.00;;;;;;6272090;28;20234;-56
2022/08/18 01:38:02;;;;;;;11.10;10.20;;;23.80;1.00;;;;;;6269485;28;20319;-55
2022/08/18 01:41:07;;;;;;;11.13;10.43;;;23.80;1.00;;;;;;6257235;28;20791;-55
2022/08/18 01:44:32;;;;;;;12.37;11.37;;;23.80;1.00;;;;;;6264870;28;20237;-55
2022/08/18 01:47:39;;;;;;;12.10;11.10;;;23.80;1.00;;;;;;6279204;28;20237;-55
2022/08/18 01:50:52;;;;;;;12.13;11.40;;;23.80;1.00;;;;;;6287066;28;20241;-56
2022/08/18 01:53:55;;;;;;;11.57;10.67;;;23.80;1.00;;;;;;6279324;28;20421;-55
2022/08/18 01:56:59;;;;;;;11.27;10.63;;;23.80;1.00;;;;;;6261825;28;20230;-55
2022/08/18 02:00:02;;;;;;;12.17;11.33;;;23.70;1.00;;;;;;6261019;28;20637;-55
2022/08/18 02:03:09;;;;;;;12.20;11.20;;;23.70;1.00;;;;;;6276703;28;20233;-56
2022/08/18 02:06:14;;;;;;;12.77;11.77;;;23.70;1.00;;;;;;6286565;28;20626;-55
2022/08/18 02:09:17;;;;;;;12.30;11.40;;;23.60;1.00;;;;;;6285338;28;20455;-55
2022/08/18 02:12:27;;;;;;;13.33;12.03;;;23.60;1.00;;;;;;6265709;28;20249;-55
2022/08/18 02:15:30;;;;;;;12.40;11.00;;;23.60;1.00;;;;;;6280151;28;20743;-57
2022/08/18 02:18:36;;;;;;;12.13;11.43;;;23.50;1.00;;;;;;6280878;28;20293;-55
2022/08/18 02:21:51;;;;;;;12.43;11.63;;;23.50;1.00;;;;;;6284198;28;20237;-56
2022/08/18 02:24:56;;;;;;;12.17;11.20;;;23.50;1.00;;;;;;6285612;28;20260;-56
2022/08/18 02:28:01;;;;;;;12.07;11.17;;;23.50;1.00;;;;;;6273768;28;20317;-56
2022/08/18 02:31:05;;;;;;;12.13;11.23;;;23.40;1.00;;;;;;6260752;28;20387;-56
2022/08/18 02:34:08;;;;;;;12.87;11.67;;;23.40;1.00;;;;;;6268902;28;20257;-55
2022/08/18 02:37:11;;;;;;;11.83;11.03;;;23.40;1.00;;;;;;6277176;28;20237;-54
2022/08/18 02:40:17;;;;;;;11.80;11.03;;;23.40;1.00;;;;;;6272678;28;20730;-56
2022/08/18 02:43:22;;;;;;;13.23;11.97;;;23.30;1.00;;;;;;6285748;28;20237;-56
2022/08/18 02:46:25;;;;;;;12.17;11.30;;;23.30;1.00;;;;;;6285193;28;20721;-54
2022/08/18 02:49:33;;;;;;;12.33;11.50;;;23.30;1.00;;;;;;6269813;28;20250;-55
2022/08/18 02:52:36;;;;;;;12.43;11.53;;;23.30;1.00;;;;;;6260418;28;20234;-55
2022/08/18 02:55:42;;;;;;;12.10;11.20;;;23.20;1.00;;;;;;6260391;28;20726;-55
2022/08/18 02:58:46;;;;;;;13.60;12.33;;;23.20;1.00;;;;;;6259638;28;20372;-56
2022/08/18 03:01:51;;;;;;;12.63;11.67;;;23.20;1.00;;;;;;6260695;28;20376;-56
2022/08/18 03:04:54;;;;;;;12.37;11.27;;;23.10;1.00;;;;;;6273384;28;20320;-55
2022/08/18 03:07:58;;;;;;;12.40;11.40;;;23.10;1.00;;;;;;6283243;28;20702;-55
2022/08/18 03:11:01;;;;;;;12.40;11.40;;;23.00;1.00;;;;;;6279310;28;20396;-56
2022/08/18 03:14:06;;;;;;;11.30;10.60;;;23.00;1.00;;;;;;6274569;28;20370;-56
2022/08/18 03:17:13;;;;;;;11.67;10.87;;;23.00;1.00;;;;;;6276393;28;20229;-55
2022/08/18 03:20:16;;;;;;;12.30;11.30;;;22.90;1.00;;;;;;6282692;28;20275;-55
2022/08/18 03:23:32;;;;;;;11.60;10.60;;;22.80;1.00;;;;;;6260367;28;20234;-56
2022/08/18 03:26:35;;;;;;;12.07;11.17;;;22.80;1.00;;;;;;6259943;28;20234;-56
2022/08/18 03:29:39;;;;;;;12.40;11.50;;;22.80;1.00;;;;;;6259271;28;20328;-57
2022/08/18 03:32:42;;;;;;;12.37;11.47;;;22.70;1.00;;;;;;6231797;28;20227;-52
2022/08/18 03:35:47;;;;;;;12.70;11.70;;;22.70;1.00;;;;;;6280040;28;20229;-55
2022/08/18 03:38:51;;;;;;;12.73;11.80;;;22.60;1.00;;;;;;6281783;28;20605;-54
2022/08/18 03:41:56;;;;;;;11.70;10.80;;;22.60;1.00;;;;;;6280631;28;20705;-55
2022/08/18 03:45:06;;;;;;;11.73;10.93;;;22.50;1.00;;;;;;6282329;28;20306;-56
2022/08/18 03:48:20;;;;;;;12.83;12.03;;;22.50;1.00;;;;;;6277439;28;20237;-55
2022/08/18 03:51:25;;;;;;;11.73;10.83;;;22.40;1.00;;;;;;6280462;28;20245;-55
2022/08/18 03:54:30;;;;;;;11.43;10.63;;;22.40;1.00;;;;;;6269619;28;20221;-54
2022/08/18 03:57:33;;;;;;;12.20;11.10;;;22.40;1.00;;;;;;6283921;28;20221;-54
2022/08/18 04:00:42;;;;;;;12.17;11.37;;;22.30;1.00;;;;;;6282916;28;20241;-55
2022/08/18 04:03:47;;;;;;;11.93;11.17;;;22.30;1.00;;;;;;6283540;28;20283;-55
2022/08/18 04:06:55;;;;;;;12.73;11.87;;;22.20;1.00;;;;;;6281321;28;20256;-54
2022/08/18 04:09:59;;;;;;;11.17;10.50;;;22.20;1.00;;;;;;6282899;28;20302;-56
2022/08/18 04:13:04;;;;;;;12.27;11.33;;;22.20;1.00;;;;;;6284967;28;20237;-55
2022/08/18 04:16:10;;;;;;;12.03;11.17;;;22.20;1.00;;;;;;6284125;28;20260;-56
2022/08/18 04:19:13;;;;;;;12.13;11.43;;;22.10;1.00;;;;;;6270473;28;20257;-55
2022/08/18 04:22:31;;;;;;;12.60;11.73;;;22.10;1.00;;;;;;6278020;28;20313;-55
2022/08/18 04:25:34;;;;;;;14.87;13.47;;;22.10;1.00;;;;;;6283082;28;20449;-54
2022/08/18 04:28:37;;;;;;;14.43;13.17;;;22.20;1.00;;;;;;6277562;28;20248;-55
2022/08/18 04:31:41;;;;;;;14.90;13.73;;;22.20;1.00;;;;;;6283408;28;20274;-55
2022/08/18 04:34:44;;;;;;;12.67;11.87;;;22.20;1.00;;;;;;6282502;28;20294;-55
2022/08/18 04:37:47;;;;;;;13.03;11.97;;;22.30;1.00;;;;;;6279449;28;20294;-55
2022/08/18 04:40:51;;;;;;;14.87;13.43;;;22.30;1.00;;;;;;6280287;28;20261;-56
2022/08/18 04:43:54;;;;;;;14.70;13.50;;;22.30;1.00;;;;;;6284002;28;20325;-54
2022/08/18 04:47:00;;;;;;;13.70;12.50;;;22.40;1.00;;;;;;6283361;28;20235;-55
2022/08/18 04:50:03;;;;;;;15.43;14.00;;;22.40;1.00;;;;;;6282985;28;20832;-56
2022/08/18 04:56:32;;;;;;;14.60;13.20;;;22.50;1.00;;;;;;6281642;28;20236;-54
2022/08/18 04:59:35;;;;;;;14.73;13.23;;;22.50;1.00;;;;;;6280076;28;20298;-56
2022/08/18 05:02:39;;;;;;;16.63;13.37;;;22.60;1.00;;;;;;6283581;28;20240;-55
2022/08/18 05:05:42;;;;;;;13.20;12.20;;;22.70;1.00;;;;;;6279462;28;20236;-56
2022/08/18 05:08:47;;;;;;;14.47;13.10;;;22.70;1.00;;;;;;6276243;28;20237;-54
2022/08/18 05:11:50;;;;;;;15.73;14.23;;;22.80;1.00;;;;;;6283095;28;20328;-56
2022/08/18 05:14:55;;;;;;;13.37;12.30;;;22.80;1.00;;;;;;6278846;28;20316;-53
2022/08/18 05:18:00;;;;;;;13.83;12.50;;;22.90;1.00;;;;;;6276612;28;20640;-58
2022/08/18 05:21:03;;;;;;;15.40;14.20;;;23.00;1.00;;;;;;6272178;28;20245;-56
2022/08/18 05:24:10;;;;;;;15.37;13.87;;;23.00;1.00;;;;;;6283911;28;20244;-55
2022/08/18 05:27:13;;;;;;;13.43;12.33;;;23.00;1.00;;;;;;6288353;28;20802;-55
2022/08/18 05:30:16;;;;;;;14.03;12.93;;;23.00;1.00;;;;;;6280112;28;20310;-55
2022/08/18 05:33:21;;;;;;;12.73;11.83;;;23.00;1.00;;;;;;6282435;28;20225;-56
2022/08/18 05:36:46;;;;;;;15.90;14.20;;;23.10;1.00;;;;;;6284903;28;20738;-55
2022/08/18 05:39:56;;;;;;;15.23;13.67;;;23.10;1.00;;;;;;6281068;28;20240;-57
2022/08/18 05:43:00;;;;;;;14.83;13.63;;;23.20;1.00;;;;;;6287932;28;20739;-56
2022/08/18 05:46:05;;;;;;;13.60;12.70;;;23.30;1.00;;;;;;6286806;28;20767;-56
2022/08/18 05:49:11;;;;;;;14.00;12.60;;;23.30;1.00;;;;;;6287994;28;20233;-55
2022/08/18 05:52:19;;;;;;;15.67;14.30;;;23.40;1.00;;;;;;6284173;28;20242;-56
2022/08/18 05:58:56;;;;;;;15.80;14.50;;;23.50;1.00;;;;;;6287949;28;20240;-56
2022/08/18 06:02:04;;;;;;;14.53;13.23;;;23.60;1.00;;;;;;6287008;28;20314;-56
2022/08/18 06:05:13;;;;;;;14.20;12.87;;;23.60;1.00;;;;;;6288152;28;20273;-56
2022/08/18 06:08:19;;;;;;;16.00;14.33;;;23.70;1.00;;;;;;6281501;28;20280;-54
2022/08/18 06:11:22;;;;;;;15.57;14.03;;;23.80;1.00;;;;;;6273939;28;20408;-55
2022/08/18 06:14:25;;;;;;;14.37;13.17;;;24.00;1.00;;;;;;6287163;28;20383;-56
2022/08/18 06:17:57;;;;;;;15.60;13.97;;;24.30;1.00;;;;;;6280525;28;20241;-56
2022/08/18 06:21:21;;;;;;;16.67;14.93;;;24.60;1.00;;;;;;6285673;28;20407;-55
2022/08/18 06:24:35;;;;;;;16.07;14.37;;;24.90;1.00;;;;;;6271250;28;20671;-55
2022/08/18 06:27:47;;;;;;;15.93;14.80;;;25.10;1.00;;;;;;6282623;28;20391;-55
2022/08/18 06:30:59;;;;;;;16.27;14.67;;;25.20;1.00;;;;;;6285919;28;20933;-55
2022/08/18 06:34:15;;;;;;;17.00;14.67;;;25.30;1.00;;;;;;6286104;28;20316;-55
2022/08/18 06:37:24;;;;;;;16.67;15.30;;;25.50;1.00;;;;;;6279373;28;20848;-55
2022/08/18 06:40:27;;;;;;;16.57;15.10;;;25.70;1.00;;;;;;6278510;28;20316;-53
2022/08/18 06:43:33;;;;;;;15.73;14.10;;;25.90;1.00;;;;;;6286872;28;20493;-56
2022/08/18 06:46:42;;;;;;;16.03;14.77;;;26.00;1.00;;;;;;6285164;28;20312;-54
2022/08/18 06:49:50;;;;;;;15.93;14.70;;;26.10;1.00;;;;;;6283555;28;20326;-55
2022/08/18 06:52:56;;;;;;;15.67;14.50;;;26.20;1.00;;;;;;6283042;28;20290;-56
2022/08/18 06:56:22;;;;;;;16.20;14.80;;;26.20;1.00;;;;;;6285563;28;20761;-55
2022/08/18 06:59:30;;;;;;;16.30;14.77;;;26.20;1.00;;;;;;6278207;28;20512;-55
2022/08/18 07:02:47;;;;;;;15.83;14.40;;;26.30;1.00;;;;;;6285967;28;20245;-55
2022/08/18 07:06:00;;;;;;;15.47;14.33;;;26.30;1.00;;;;;;6282993;28;20252;-56
2022/08/18 07:09:22;;;;;;;15.83;14.50;;;26.30;1.00;;;;;;6284062;28;20347;-55
2022/08/18 07:12:29;;;;;;;16.50;14.77;;;26.40;1.00;;;;;;6279336;28;20503;-54
2022/08/18 07:15:35;;;;;;;15.47;14.30;;;26.50;1.00;;;;;;6281746;28;20244;-56
2022/08/18 07:18:38;;;;;;;16.07;14.77;;;26.50;1.00;;;;;;6284827;28;20316;-56
2022/08/18 07:21:41;;;;;;;15.80;14.33;;;26.60;1.00;;;;;;6285292;28;20297;-56
2022/08/18 07:24:47;;;;;;;15.80;14.47;;;26.60;1.00;;;;;;6284131;28;20579;-56
2022/08/18 07:27:55;;;;;;;15.33;14.00;;;26.70;1.00;;;;;;6285287;28;20233;-59
2022/08/18 07:31:13;;;;;;;15.27;14.07;;;26.80;1.00;;;;;;6268042;28;20601;-55
2022/08/18 07:34:24;;;;;;;16.97;15.60;;;26.90;1.00;;;;;;6285886;28;20242;-56
2022/08/18 07:37:31;;;;;;;15.33;14.03;;;26.90;1.00;;;;;;6285061;28;20581;-56
2022/08/18 07:40:40;;;;;;;15.33;14.10;;;26.90;1.00;;;;;;6278209;28;20610;-50
2022/08/18 07:43:55;;;;;;;15.93;14.40;;;27.00;1.00;;;;;;6284704;28;20337;-56
2022/08/18 07:47:03;;;;;;;15.90;14.43;;;27.00;1.00;;;;;;6258364;28;20380;-56
2022/08/18 07:50:07;;;;;;;15.73;14.37;;;27.00;1.00;;;;;;6277527;28;20679;-54
2022/08/18 07:53:41;;;;;;;15.00;13.50;;;27.10;1.00;;;;;;6277912;28;20238;-54
2022/08/18 07:57:05;;;;;;;14.90;13.60;;;27.10;1.00;;;;;;6278434;28;20226;-55
2022/08/18 08:00:16;;;;;;;15.27;14.17;;;27.20;1.00;;;;;;6283404;28;20252;-55
2022/08/18 08:03:49;;;;;;;16.77;15.20;;;27.20;1.00;;;;;;6278594;28;21502;-55
2022/08/18 08:07:00;;;;;;;15.87;14.57;;;27.30;1.00;;;;;;6281740;28;20233;-49
2022/08/18 08:10:34;;;;;;;14.37;13.37;;;27.30;1.00;;;;;;6276942;28;20237;-55
2022/08/18 08:13:57;;;;;;;18.03;15.27;;;27.30;1.00;;;;;;6282828;28;20221;-54
2022/08/18 08:17:07;;;;;;;15.20;13.90;;;27.40;1.00;;;;;;6278147;28;20233;-53
2022/08/18 08:20:20;;;;;;;16.17;14.77;;;27.50;1.00;;;;;;6283554;28;20848;-56
2022/08/18 08:23:31;;;;;;;17.27;14.90;;;27.60;1.00;;;;;;6274691;28;20246;-55
2022/08/18 08:26:46;;;;;;;15.40;14.17;;;27.70;1.00;;;;;;6276948;28;20913;-57
2022/08/18 08:30:00;;;;;;;17.23;15.53;;;27.80;1.00;;;;;;6279448;28;20230;-56
2022/08/18 08:33:11;;;;;;;16.13;14.47;;;27.90;1.00;;;;;;6282343;28;20241;-56
2022/08/18 08:36:20;;;;;;;16.40;14.37;;;28.00;1.00;;;;;;6280310;28;20312;-55
2022/08/18 08:39:28;;;;;;;16.43;14.93;;;28.10;1.00;;;;;;6277492;28;20245;-55
2022/08/18 08:42:39;;;;;;;15.17;13.63;;;28.20;1.00;;;;;;6278270;28;20241;-55
2022/08/18 08:45:47;;;;;;;14.77;13.53;;;28.30;1.00;;;;;;6280903;28;20717;-56
2022/08/18 08:49:00;;;;;;;16.27;14.97;;;28.40;1.00;;;;;;6283151;28;20308;-55
2022/08/18 08:52:10;;;;;;;15.70;14.30;;;28.50;1.00;;;;;;6281813;28;20468;-56
2022/08/18 08:55:20;;;;;;;15.70;13.87;;;28.60;1.00;;;;;;6282881;28;20231;-55
2022/08/18 08:58:29;;;;;;;15.70;13.57;;;28.60;1.00;;;;;;6283021;28;20847;-55
2022/08/18 09:01:37;;;;;;;16.35;14.77;;;28.80;1.00;;;;;;6279749;28;20607;-55
2022/08/18 09:04:52;;;;;;;16.00;14.43;;;29.00;1.00;;;;;;6282979;28;20225;-55
2022/08/18 09:08:28;;;;;;;15.47;14.07;;;29.00;1.00;;;;;;6282759;28;20249;-55
2022/08/18 09:11:51;;;;;;;14.60;13.07;;;29.20;1.00;;;;;;6272826;28;20318;-56
2022/08/18 09:15:19;;;;;;;20.60;15.18;;;29.20;1.00;;;;;;6282161;28;20659;-55
2022/08/18 09:18:35;;;;;;;13.82;12.65;;;29.30;1.00;;;;;;6282434;28;20498;-56
2022/08/18 09:21:43;;;;;;;14.00;12.85;;;29.40;1.00;;;;;;6282543;28;20236;-57
2022/08/18 09:24:50;;;;;;;14.68;13.10;;;29.50;1.00;;;;;;6273402;28;20307;-55
2022/08/18 09:28:08;;;;;;;14.20;12.77;;;29.50;1.00;;;;;;6281597;28;20237;-54
2022/08/18 09:31:18;;;;;;;13.52;12.32;;;29.70;1.00;;;;;;6281904;28;20242;-55
2022/08/18 09:34:34;;;;;;;14.43;12.00;;;29.80;1.00;;;;;;6282862;28;20234;-56
2022/08/18 09:41:30;;;;;;;14.93;13.38;;;30.10;1.00;;;;;;6274604;28;20341;-56
2022/08/18 09:41:31;;;;;;;13.82;12.07;;;30.30;1.00;;;;;;6281368;28;20263;-57
2022/08/18 09:45:01;;;;;;;12.93;11.82;;;30.40;1.00;;;;;;6281245;28;20237;-59
2022/08/18 09:48:28;;;;;;;13.93;12.38;;;30.50;1.00;;;;;;6273909;28;20412;-56
2022/08/18 09:51:35;;;;;;;13.35;11.88;;;30.50;1.00;;;;;;6282801;28;20322;-56
2022/08/18 09:54:51;;;;;;;12.52;11.40;;;30.70;1.00;;;;;;6279656;28;20312;-56
2022/08/18 09:58:14;;;;;;;13.38;11.88;;;30.70;1.00;;;;;;6282167;28;20229;-55
2022/08/18 10:01:32;;;;;;;12.77;11.57;;;30.90;1.00;;;;;;6281069;28;20234;-55
2022/08/18 10:04:47;;;;;;;12.68;11.40;;;30.90;1.00;;;;;;6280100;28;20480;-55
2022/08/18 10:07:54;;;;;;;13.10;11.75;;;31.10;1.00;;;;;;6283372;28;20225;-55
2022/08/18 10:11:15;;;;;;;11.60;10.82;;;31.10;1.00;;;;;;6281440;28;20587;-56
2022/08/18 10:14:50;;;;;;;12.10;11.10;;;31.20;1.00;;;;;;6282175;28;20238;-54
2022/08/18 10:18:13;;;;;;;14.18;11.35;;;31.30;1.00;;;;;;6276653;28;20375;-54
2022/08/18 10:21:21;;;;;;;13.60;11.80;;;31.30;1.00;;;;;;6269927;28;20323;-59
2022/08/18 10:24:30;;;;;;;11.48;10.52;;;31.30;1.00;;;;;;6286476;28;21000;-55
2022/08/18 10:27:54;;;;;;;18.17;12.50;;;31.30;1.00;;;;;;6286596;28;20721;-55
2022/08/18 10:31:04;;;;;;;12.10;10.95;;;31.20;1.00;;;;;;6283882;28;20260;-55
2022/08/18 10:34:12;;;;;;;14.43;11.10;;;30.90;1.00;;;;;;6286164;28;20278;-55
2022/08/18 10:37:24;;;;;;;14.80;12.38;;;30.80;1.00;;;;;;6279876;28;20776;-55
2022/08/18 10:40:30;;;;;;;18.60;12.13;;;30.80;1.00;;;;;;6283542;28;20441;-56
2022/08/18 10:43:41;;;;;;;16.15;11.15;;;31.10;1.00;;;;;;6286022;28;20237;-56
2022/08/18 10:46:59;;;;;;;12.23;10.43;;;31.30;1.00;;;;;;6281373;28;20230;-56
2022/08/18 10:50:06;;;;;;;13.80;9.95;;;31.60;1.00;;;;;;6282794;28;20229;-55
2022/08/18 10:53:16;;;;;;;11.13;10.20;;;31.70;1.00;;;;;;6285752;28;20498;-55
2022/08/18 10:56:46;;;;;;;10.25;9.15;;;32.00;1.00;;;;;;6280479;28;20292;-56
2022/08/18 10:59:59;;;;;;;8.77;7.97;;;32.20;1.00;;;;;;6282575;28;20268;-52
2022/08/18 11:03:13;;;;;;;11.27;8.85;;;32.10;1.00;;;;;;6285153;28;20233;-55
2022/08/18 11:06:40;;;;;;;11.93;10.82;;;32.10;1.00;;;;;;6281026;28;20498;-55
2022/08/18 11:09:43;;;;;;;11.48;10.43;;;32.10;1.00;;;;;;6285323;28;20512;-55
2022/08/18 11:13:08;;;;;;;14.77;11.05;;;32.10;1.00;;;;;;6286309;28;20370;-55
2022/08/18 11:16:26;;;;;;;10.73;9.63;;;32.20;1.00;;;;;;6271260;28;20610;-56
2022/08/18 11:19:37;;;;;;;11.57;10.15;;;32.30;1.00;;;;;;6281767;28;20237;-56
2022/08/18 11:22:52;;;;;;;10.73;9.70;;;32.30;1.00;;;;;;6284838;28;20763;-55
2022/08/18 11:26:13;;;;;;;11.15;8.75;;;32.50;1.00;;;;;;6284258;28;20297;-56
2022/08/18 11:29:30;;;;;;;10.27;9.30;;;32.70;1.00;;;;;;6280371;28;20237;-56
2022/08/18 11:32:38;;;;;;;10.30;9.00;;;32.80;1.00;;;;;;6278053;28;20816;-54
2022/08/18 11:35:57;;;;;;;9.38;8.70;;;32.90;1.00;;;;;;6284750;28;20340;-56
2022/08/18 11:39:02;;;;;;;9.60;8.75;;;32.90;1.00;;;;;;6284535;28;20605;-55
2022/08/18 11:42:09;;;;;;;8.32;7.53;;;33.00;1.00;;;;;;6282762;28;20710;-55
2022/08/18 11:45:32;;;;;;;9.57;8.00;;;33.10;1.00;;;;;;6272632;28;20688;-54
2022/08/18 11:48:45;;;;;;;8.35;7.65;;;33.10;1.00;;;;;;6284717;28;20324;-55
2022/08/18 11:52:18;;;;;;;7.78;7.30;;;33.20;1.00;;;;;;6274498;28;20229;-55
2022/08/18 11:55:41;;;;;;;8.35;7.60;;;33.40;1.00;;;;;;6277011;28;20237;-56
2022/08/18 11:58:57;;;;;;;8.38;7.72;;;33.40;1.00;;;;;;6284761;28;20244;-55
2022/08/18 12:02:01;;;;;;;8.05;7.18;;;33.20;1.00;;;;;;6282299;28;20316;-54
2022/08/18 12:05:05;;;;;;;7.22;6.80;;;33.20;1.00;;;;;;6284438;28;20321;-55
2022/08/18 12:08:28;;;;;;;9.55;7.57;;;33.40;1.00;;;;;;6283154;28;20234;-55
2022/08/18 12:11:54;;;;;;;7.95;7.22;;;33.80;1.00;;;;;;6280069;28;20723;-57
2022/08/18 12:15:00;;;;;;;7.13;6.70;;;33.90;1.00;;;;;;6283126;28;20380;-57
2022/08/18 12:18:19;;;;;;;7.45;7.03;;;33.80;1.00;;;;;;6272060;28;20234;-55
2022/08/18 12:21:46;;;;;;;7.82;7.03;;;33.70;1.00;;;;;;6274558;28;20244;-56
2022/08/18 12:24:51;;;;;;;7.47;6.93;;;33.80;1.00;;;;;;6283344;28;20244;-55
2022/08/18 12:27:54;;;;;;;10.00;7.97;;;34.00;1.00;;;;;;6284401;28;20397;-56
2022/08/18 12:30:57;;;;;;;8.57;7.78;;;34.10;1.00;;;;;;6281077;28;20253;-55
2022/08/18 12:34:03;;;;;;;10.73;7.80;;;34.10;1.00;;;;;;6283760;28;20248;-54
2022/08/18 12:37:10;;;;;;;8.77;8.05;;;34.20;1.00;;;;;;6278932;28;20230;-55
2022/08/18 12:40:33;;;;;;;11.82;6.55;;;34.30;1.00;;;;;;6275672;28;20245;-54
2022/08/18 12:43:39;;;;;;;8.45;7.32;;;34.40;1.00;;;;;;6282101;28;20387;-56
2022/08/18 12:46:44;;;;;;;7.35;6.85;;;34.50;1.00;;;;;;6283016;28;20295;-55
2022/08/18 12:49:50;;;;;;;8.02;7.38;;;34.60;1.00;;;;;;6279514;28;20234;-56
2022/08/18 12:52:55;;;;;;;9.35;8.45;;;34.70;1.00;;;;;;6277797;28;20828;-56
2022/08/18 12:56:00;;;;;;;14.20;8.18;;;34.80;1.00;;;;;;6282141;28;20237;-56
2022/08/18 12:59:06;;;;;;;9.70;8.10;;;34.70;1.00;;;;;;6274371;28;20248;-55
2022/08/18 13:02:10;;;;;;;12.55;8.43;;;34.80;1.00;;;;;;6274689;28;20632;-55
2022/08/18 13:05:14;;;;;;;15.00;8.30;;;34.80;1.00;;;;;;6281756;28;20314;-56
2022/08/18 13:08:21;;;;;;;8.15;7.65;;;35.00;1.00;;;;;;6280337;28;20390;-55
2022/08/18 13:11:32;;;;;;;8.73;7.97;;;35.00;1.00;;;;;;6282631;28;20264;-56
2022/08/18 13:14:36;;;;;;;8.45;7.95;;;35.00;1.00;;;;;;6282209;28;20276;-56
2022/08/18 13:17:46;;;;;;;8.27;7.60;;;34.80;1.00;;;;;;6280699;28;20240;-55
2022/08/18 13:20:50;;;;;;;8.40;7.47;;;34.40;1.00;;;;;;6283480;28;20287;-55
2022/08/18 13:23:55;;;;;;;8.75;8.07;;;34.20;1.00;;;;;;6279426;28;20332;-55
2022/08/18 13:27:03;;;;;;;17.40;8.57;;;34.10;1.00;;;;;;6283092;28;20365;-55
2022/08/18 13:30:20;;;;;;;12.68;8.90;;;34.10;1.00;;;;;;6282650;28;20244;-57
2022/08/18 13:33:34;;;;;;;10.63;9.63;;;33.90;1.00;;;;;;6283465;28;20730;-55
2022/08/18 13:36:57;;;;;;;11.82;9.55;;;33.80;1.00;;;;;;6281312;28;20231;-56
2022/08/18 13:40:03;;;;;;;11.15;9.93;;;33.80;1.00;;;;;;6281210;28;20253;-56
2022/08/18 13:43:10;;;;;;;10.15;9.23;;;33.80;1.00;;;;;;6285192;28;20242;-55
2022/08/18 13:46:18;;;;;;;10.13;9.13;;;33.80;1.00;;;;;;6282887;28;20745;-53
2022/08/18 13:49:31;;;;;;;9.63;8.80;;;33.90;1.00;;;;;;6280578;28;20328;-56
2022/08/18 13:52:34;;;;;;;10.10;9.30;;;34.10;1.00;;;;;;6287325;28;20433;-55
2022/08/18 13:55:50;;;;;;;10.73;9.93;;;34.00;1.00;;;;;;6277209;28;20320;-56
2022/08/18 13:58:54;;;;;;;10.63;9.63;;;33.80;1.00;;;;;;6286638;28;20318;-56
2022/08/18 14:01:58;;;;;;;14.95;9.65;;;33.70;1.00;;;;;;6283452;28;20460;-49
2022/08/18 14:05:06;;;;;;;9.43;8.68;;;33.60;1.00;;;;;;6286978;28;20633;-56
2022/08/18 14:08:10;;;;;;;10.00;9.13;;;33.60;1.00;;;;;;6286372;28;20749;-55
2022/08/18 14:11:28;;;;;;;14.57;8.52;;;33.50;1.00;;;;;;6274943;28;20642;-56
2022/08/18 14:14:35;;;;;;;11.30;9.25;;;33.40;1.00;;;;;;6253898;28;20367;-55
2022/08/18 14:17:39;;;;;;;11.65;8.85;;;33.40;1.00;;;;;;6246442;28;20413;-54
2022/08/18 14:27:39;;;;;;;8.50;7.80;;;33.50;1.00;;;;;;6279943;28;20233;-55
2022/08/18 14:30:59;;;;;;;8.98;8.40;;;33.40;1.00;;;;;;6282859;28;20619;-56
2022/08/18 14:34:02;;;;;;;9.98;8.43;;;33.50;1.00;;;;;;6286816;28;20283;-56
2022/08/18 14:37:06;;;;;;;9.38;8.68;;;33.60;1.00;;;;;;6286941;28;20245;-54
2022/08/18 14:40:13;;;;;;;9.73;8.95;;;33.70;1.00;;;;;;6285462;28;20660;-55
2022/08/18 14:43:20;;;;;;;10.15;8.73;;;33.70;1.00;;;;;;6281077;28;20718;-56
2022/08/18 14:46:26;;;;;;;9.63;8.63;;;33.70;1.00;;;;;;6281811;28;20233;-55
2022/08/18 14:49:35;;;;;;;7.97;7.40;;;33.80;1.00;;;;;;6286183;28;20256;-55
2022/08/18 14:52:50;;;;;;;9.70;8.40;;;33.80;1.00;;;;;;6282667;28;20245;-56
2022/08/18 14:55:53;;;;;;;8.82;8.02;;;33.90;1.00;;;;;;6285820;28;20591;-55
2022/08/18 14:58:58;;;;;;;9.90;8.95;;;33.80;1.00;;;;;;6285051;28;20241;-56
2022/08/18 15:02:02;;;;;;;9.48;8.52;;;33.80;1.00;;;;;;6287856;28;20248;-55
2022/08/18 15:05:07;;;;;;;8.55;7.63;;;33.50;1.00;;;;;;6278601;28;20777;-59
2022/08/18 15:08:26;;;;;;;9.57;7.72;;;33.10;1.00;;;;;;6286712;28;20237;-56
2022/08/18 15:11:30;;;;;;;14.63;8.02;;;32.90;1.00;;;;;;6283040;28;20748;-56
2022/08/18 15:14:36;;;;;;;7.80;7.20;;;32.70;1.00;;;;;;6286835;28;20232;-55
2022/08/18 15:17:39;;;;;;;11.25;8.00;;;32.50;1.00;;;;;;6286432;28;20245;-55
2022/08/18 15:27:22;;;;;;;8.25;7.60;;;32.10;1.00;;;;;;6277818;28;20312;-56
2022/08/18 15:30:50;;;;;;;8.23;7.40;;;32.00;1.00;;;;;;6285318;28;20614;-57
2022/08/18 15:33:54;;;;;;;11.18;8.45;;;31.80;1.00;;;;;;6285397;28;20229;-57
2022/08/18 15:37:00;;;;;;;8.90;8.05;;;31.70;1.00;;;;;;6286540;28;20233;-56
2022/08/18 15:40:15;;;;;;;9.63;8.55;;;31.60;1.00;;;;;;6285738;28;20249;-56
2022/08/18 15:43:32;;;;;;;9.00;8.30;;;31.50;1.00;;;;;;6279651;28;20237;-55
2022/08/18 15:46:38;;;;;;;9.45;8.48;;;31.30;1.00;;;;;;6278606;28;20327;-60
2022/08/18 15:49:42;;;;;;;11.05;8.48;;;31.20;1.00;;;;;;6282298;28;20246;-55
2022/08/18 15:52:48;;;;;;;8.93;8.27;;;31.20;1.00;;;;;;6280226;28;20313;-55
2022/08/18 15:55:51;;;;;;;9.70;8.73;;;31.30;1.00;;;;;;6281374;28;20256;-57
2022/08/18 15:58:56;;;;;;;9.45;8.75;;;31.30;1.00;;;;;;6285588;28;20616;-56
2022/08/18 16:02:04;;;;;;;8.98;8.25;;;31.20;1.00;;;;;;6285864;28;20611;-57
2022/08/18 16:05:08;;;;;;;8.77;8.07;;;31.30;1.00;;;;;;6284254;28;20591;-56
2022/08/18 16:08:17;;;;;;;10.50;7.97;;;31.20;1.00;;;;;;6285184;28;20664;-55
2022/08/18 16:11:20;;;;;;;8.43;7.80;;;31.10;1.00;;;;;;6280197;28;20294;-55
2022/08/18 16:14:32;;;;;;;8.52;7.93;;;31.10;1.00;;;;;;6272510;28;20237;-58
2022/08/18 16:17:37;;;;;;;8.75;7.95;;;31.10;1.00;;;;;;6280309;28;20314;-55
2022/08/18 16:20:40;;;;;;;10.98;7.43;;;31.00;1.00;;;;;;6281818;28;20376;-56
2022/08/18 16:23:46;;;;;;;8.27;7.47;;;30.80;1.00;;;;;;6280240;28;20320;-59
2022/08/18 16:26:50;;;;;;;9.63;8.73;;;30.60;1.00;;;;;;6284867;28;20252;-56
2022/08/18 16:29:54;;;;;;;9.40;8.50;;;30.40;1.00;;;;;;6280784;28;20230;-55
2022/08/18 16:33:02;;;;;;;10.23;8.50;;;30.20;1.00;;;;;;6285410;28;20308;-55
2022/08/18 16:36:08;;;;;;;10.88;8.98;;;29.90;1.00;;;;;;6284570;28;20234;-58
2022/08/18 16:39:11;;;;;;;11.02;9.00;;;29.70;1.00;;;;;;6279448;28;20253;-56
2022/08/18 16:42:16;;;;;;;10.55;9.63;;;29.20;1.00;;;;;;6282262;28;20480;-55
2022/08/18 16:45:20;;;;;;;10.97;10.00;;;28.80;1.00;;;;;;6283679;28;20762;-55
2022/08/18 16:48:24;;;;;;;11.40;10.47;;;28.30;1.00;;;;;;6280389;28;20233;-57